Bremen — C6JC3 — position and weather

sailwx.info

Track history (hours):
 
Tides and Currents Weather Stations Pressure Air Temp Water Temp Dewpoint Dewpoint Depression Visibility Wind Speed Wind Dir Waves Ship Positions

Bremen

Operator: Hapag-Lloyd Container Line

Last reported at 2014-Sep-13 21:31 UTC. Time now 2014-Sep-17 17:40 UTC.
Position N 52°23' W 005°48'.

Length 111.5 m; beam 17 m; draft 4.8 m.

Type: Ship. MMSI: 308429000.

Date/timePositionNaut miles runAvg speedWind from/ knotsBaromVisibWave heightAir tempDewpointWater temp
2014-Sep-13 21:31N 52°23' W 005°48'106 4.1
2014-Sep-12 19:26N 54°01' W 004°38'7 7.2
2014-Sep-12 18:31N 54°05' W 004°30'4 0.4
2014-Sep-12 10:08N 54°09' W 004°28'0 0.0
2014-Sep-12 08:32N 54°09' W 004°28'1 1.4
2014-Sep-12 07:32N 54°09' W 004°26'1110.8
2014-Sep-12 06:33N 54°17' W 004°12'9 8.9
2014-Sep-12 05:32N 54°25' W 004°18'1312.9
2014-Sep-12 04:33N 54°31' W 004°37'1211.8
2014-Sep-12 03:33N 54°36' W 004°55'1211.8
2014-Sep-12 02:33N 54°44' W 005°10'1212.0
2014-Sep-12 01:33N 54°53' W 005°24'1211.9
2014-Sep-12 00:33N 55°02' W 005°38'1211.4
2014-Sep-11 23:33N 55°10' W 005°52'1313.0
2014-Sep-11 22:33N 55°20' W 006°06'1413.7
2014-Sep-11 21:33N 55°29' W 006°24'1413.9
2014-Sep-11 20:34N 55°41' W 006°36'  
Track history (hours):
 
Tides and Currents Weather Stations Pressure Air Temp Water Temp Dewpoint Dewpoint Depression Visibility Wind Speed Wind Dir Waves Ship Positions

Bremen

Operator: Hapag-Lloyd Container Line

Last reported at 2014-Sep-13 21:31 UTC. Time now 2014-Sep-17 17:40 UTC.
Position N 52°23' W 005°48'.

Length 111.5 m; beam 17 m; draft 4.8 m.

Type: Ship. MMSI: 308429000.

Date/timePositionNaut miles runAvg speedWind from/ knotsBaromVisibWave heightAir tempDewpointWater temp
2014-Sep-13 21:31N 52°23' W 005°48'106 4.1
2014-Sep-12 19:26N 54°01' W 004°38'7 7.2
2014-Sep-12 18:31N 54°05' W 004°30'4 0.4
2014-Sep-12 10:08N 54°09' W 004°28'0 0.0
2014-Sep-12 08:32N 54°09' W 004°28'1 1.4
2014-Sep-12 07:32N 54°09' W 004°26'1110.8
2014-Sep-12 06:33N 54°17' W 004°12'9 8.9
2014-Sep-12 05:32N 54°25' W 004°18'1312.9
2014-Sep-12 04:33N 54°31' W 004°37'1211.8
2014-Sep-12 03:33N 54°36' W 004°55'1211.8
2014-Sep-12 02:33N 54°44' W 005°10'1212.0
2014-Sep-12 01:33N 54°53' W 005°24'1211.9
2014-Sep-12 00:33N 55°02' W 005°38'1211.4
2014-Sep-11 23:33N 55°10' W 005°52'1313.0
2014-Sep-11 22:33N 55°20' W 006°06'1413.7
2014-Sep-11 21:33N 55°29' W 006°24'1413.9
2014-Sep-11 20:34N 55°41' W 006°36'  

Dump ship's entire track history